sensor_id;sensor_type;location;lat;lon;timestamp;P1;durP1;ratioP1;P2;durP2;ratioP2
39776;SDS011;25453;48.162;14.510;2022-09-13T00:00:40;4.70;;;1.67;;
39776;SDS011;25453;48.162;14.510;2022-09-13T00:03:10;2.75;;;1.48;;
39776;SDS011;25453;48.162;14.510;2022-09-13T00:05:45;3.15;;;1.65;;
39776;SDS011;25453;48.162;14.510;2022-09-13T00:08:20;2.45;;;1.40;;
39776;SDS011;25453;48.162;14.510;2022-09-13T00:10:48;3.55;;;1.77;;
39776;SDS011;25453;48.162;14.510;2022-09-13T00:13:22;2.22;;;1.48;;
39776;SDS011;25453;48.162;14.510;2022-09-13T00:15:49;4.78;;;1.90;;
39776;SDS011;25453;48.162;14.510;2022-09-13T00:18:23;2.90;;;1.40;;
39776;SDS011;25453;48.162;14.510;2022-09-13T00:20:50;2.40;;;1.55;;
39776;SDS011;25453;48.162;14.510;2022-09-13T00:23:24;3.30;;;1.73;;
39776;SDS011;25453;48.162;14.510;2022-09-13T00:26:08;5.38;;;1.73;;
39776;SDS011;25453;48.162;14.510;2022-09-13T00:28:47;3.13;;;1.63;;
39776;SDS011;25453;48.162;14.510;2022-09-13T00:31:19;3.35;;;1.67;;
39776;SDS011;25453;48.162;14.510;2022-09-13T00:33:57;2.08;;;1.30;;
39776;SDS011;25453;48.162;14.510;2022-09-13T00:36:27;3.42;;;1.73;;
39776;SDS011;25453;48.162;14.510;2022-09-13T00:39:02;3.55;;;1.48;;
39776;SDS011;25453;48.162;14.510;2022-09-13T00:41:30;3.17;;;1.73;;
39776;SDS011;25453;48.162;14.510;2022-09-13T00:44:04;3.00;;;1.67;;
39776;SDS011;25453;48.162;14.510;2022-09-13T00:46:58;2.90;;;1.70;;
39776;SDS011;25453;48.162;14.510;2022-09-13T00:49:35;3.37;;;1.80;;
39776;SDS011;25453;48.162;14.510;2022-09-13T00:52:13;3.58;;;2.03;;
39776;SDS011;25453;48.162;14.510;2022-09-13T00:54:56;2.15;;;1.50;;
39776;SDS011;25453;48.162;14.510;2022-09-13T00:57:38;2.92;;;1.70;;
39776;SDS011;25453;48.162;14.510;2022-09-13T01:00:15;4.03;;;1.95;;
39776;SDS011;25453;48.162;14.510;2022-09-13T01:02:46;3.88;;;1.70;;
39776;SDS011;25453;48.162;14.510;2022-09-13T01:05:30;2.47;;;1.45;;
39776;SDS011;25453;48.162;14.510;2022-09-13T01:08:00;2.25;;;1.33;;
39776;SDS011;25453;48.162;14.510;2022-09-13T01:10:35;3.15;;;1.52;;
39776;SDS011;25453;48.162;14.510;2022-09-13T01:13:08;3.20;;;1.67;;
39776;SDS011;25453;48.162;14.510;2022-09-13T01:16:04;2.97;;;1.73;;
39776;SDS011;25453;48.162;14.510;2022-09-13T01:18:31;2.88;;;1.70;;
39776;SDS011;25453;48.162;14.510;2022-09-13T01:21:31;3.35;;;1.70;;
39776;SDS011;25453;48.162;14.510;2022-09-13T01:27:24;3.53;;;1.63;;
39776;SDS011;25453;48.162;14.510;2022-09-13T01:44:23;2.60;;;1.50;;
39776;SDS011;25453;48.162;14.510;2022-09-13T01:47:18;3.30;;;1.60;;
39776;SDS011;25453;48.162;14.510;2022-09-13T01:50:02;3.72;;;2.10;;
39776;SDS011;25453;48.162;14.510;2022-09-13T01:52:54;2.88;;;1.75;;
39776;SDS011;25453;48.162;14.510;2022-09-13T01:58:20;3.00;;;1.85;;
39776;SDS011;25453;48.162;14.510;2022-09-13T02:01:27;5.10;;;2.05;;
39776;SDS011;25453;48.162;14.510;2022-09-13T02:04:07;4.57;;;2.20;;
39776;SDS011;25453;48.162;14.510;2022-09-13T02:06:45;6.53;;;2.40;;
39776;SDS011;25453;48.162;14.510;2022-09-13T02:09:25;4.35;;;1.92;;
39776;SDS011;25453;48.162;14.510;2022-09-13T02:11:59;3.05;;;1.85;;
39776;SDS011;25453;48.162;14.510;2022-09-13T02:15:06;4.18;;;2.42;;
39776;SDS011;25453;48.162;14.510;2022-09-13T02:18:27;3.38;;;1.67;;
39776;SDS011;25453;48.162;14.510;2022-09-13T02:21:01;3.95;;;1.80;;
39776;SDS011;25453;48.162;14.510;2022-09-13T02:24:06;3.00;;;1.60;;
39776;SDS011;25453;48.162;14.510;2022-09-13T02:26:36;3.58;;;1.75;;
39776;SDS011;25453;48.162;14.510;2022-09-13T02:29:13;4.03;;;1.73;;
39776;SDS011;25453;48.162;14.510;2022-09-13T02:32:05;4.00;;;2.03;;
39776;SDS011;25453;48.162;14.510;2022-09-13T02:34:51;3.08;;;1.77;;
39776;SDS011;25453;48.162;14.510;2022-09-13T02:37:23;3.65;;;1.77;;
39776;SDS011;25453;48.162;14.510;2022-09-13T02:40:06;3.72;;;1.65;;
39776;SDS011;25453;48.162;14.510;2022-09-13T02:42:42;2.33;;;1.60;;
39776;SDS011;25453;48.162;14.510;2022-09-13T02:45:21;3.00;;;1.60;;
39776;SDS011;25453;48.162;14.510;2022-09-13T02:48:03;2.65;;;1.27;;
39776;SDS011;25453;48.162;14.510;2022-09-13T02:50:58;2.28;;;1.48;;
39776;SDS011;25453;48.162;14.510;2022-09-13T02:56:30;2.22;;;1.23;;
39776;SDS011;25453;48.162;14.510;2022-09-13T02:59:20;2.55;;;1.17;;
39776;SDS011;25453;48.162;14.510;2022-09-13T03:02:03;2.40;;;1.30;;
39776;SDS011;25453;48.162;14.510;2022-09-13T03:04:34;2.22;;;1.20;;
39776;SDS011;25453;48.162;14.510;2022-09-13T03:07:09;4.50;;;1.70;;
39776;SDS011;25453;48.162;14.510;2022-09-13T03:09:42;2.22;;;1.48;;
39776;SDS011;25453;48.162;14.510;2022-09-13T03:12:31;2.42;;;1.30;;
39776;SDS011;25453;48.162;14.510;2022-09-13T03:18:35;3.23;;;1.50;;
39776;SDS011;25453;48.162;14.510;2022-09-13T03:24:04;2.33;;;1.30;;
39776;SDS011;25453;48.162;14.510;2022-09-13T03:29:51;2.65;;;1.42;;
39776;SDS011;25453;48.162;14.510;2022-09-13T03:38:01;1.65;;;1.00;;
39776;SDS011;25453;48.162;14.510;2022-09-13T03:40:46;2.35;;;1.40;;
39776;SDS011;25453;48.162;14.510;2022-09-13T03:43:32;4.53;;;1.52;;
39776;SDS011;25453;48.162;14.510;2022-09-13T03:46:42;3.10;;;1.70;;
39776;SDS011;25453;48.162;14.510;2022-09-13T03:49:19;2.85;;;1.50;;
39776;SDS011;25453;48.162;14.510;2022-09-13T03:51:55;6.68;;;1.73;;
39776;SDS011;25453;48.162;14.510;2022-09-13T03:54:31;2.13;;;1.30;;
39776;SDS011;25453;48.162;14.510;2022-09-13T03:57:17;2.97;;;1.33;;
39776;SDS011;25453;48.162;14.510;2022-09-13T03:59:55;2.30;;;1.45;;
39776;SDS011;25453;48.162;14.510;2022-09-13T04:02:24;1.75;;;1.05;;
39776;SDS011;25453;48.162;14.510;2022-09-13T04:04:59;3.13;;;1.50;;
39776;SDS011;25453;48.162;14.510;2022-09-13T04:07:27;2.80;;;1.60;;
39776;SDS011;25453;48.162;14.510;2022-09-13T04:10:01;3.33;;;1.60;;
39776;SDS011;25453;48.162;14.510;2022-09-13T04:12:28;3.70;;;1.73;;
39776;SDS011;25453;48.162;14.510;2022-09-13T04:15:04;5.88;;;1.80;;
39776;SDS011;25453;48.162;14.510;2022-09-13T04:17:34;3.17;;;2.03;;
39776;SDS011;25453;48.162;14.510;2022-09-13T04:20:09;3.88;;;1.48;;
39776;SDS011;25453;48.162;14.510;2022-09-13T04:22:37;3.63;;;1.58;;
39776;SDS011;25453;48.162;14.510;2022-09-13T04:25:11;2.90;;;1.48;;
39776;SDS011;25453;48.162;14.510;2022-09-13T04:27:38;4.03;;;1.77;;
39776;SDS011;25453;48.162;14.510;2022-09-13T04:30:12;3.50;;;2.10;;
39776;SDS011;25453;48.162;14.510;2022-09-13T04:32:41;3.92;;;1.83;;
39776;SDS011;25453;48.162;14.510;2022-09-13T04:35:16;3.67;;;1.70;;
39776;SDS011;25453;48.162;14.510;2022-09-13T04:40:21;3.67;;;1.85;;
39776;SDS011;25453;48.162;14.510;2022-09-13T04:45:23;4.05;;;2.17;;
39776;SDS011;25453;48.162;14.510;2022-09-13T04:47:57;4.13;;;2.53;;
39776;SDS011;25453;48.162;14.510;2022-09-13T04:50:31;4.97;;;1.83;;
39776;SDS011;25453;48.162;14.510;2022-09-13T04:53:11;3.78;;;1.70;;
39776;SDS011;25453;48.162;14.510;2022-09-13T04:55:46;3.90;;;1.98;;
39776;SDS011;25453;48.162;14.510;2022-09-13T04:58:20;5.22;;;2.10;;
39776;SDS011;25453;48.162;14.510;2022-09-13T05:00:48;2.85;;;1.58;;
39776;SDS011;25453;48.162;14.510;2022-09-13T05:03:23;4.35;;;1.90;;
39776;SDS011;25453;48.162;14.510;2022-09-13T05:05:50;3.08;;;1.65;;
39776;SDS011;25453;48.162;14.510;2022-09-13T05:08:17;2.75;;;1.45;;
39776;SDS011;25453;48.162;14.510;2022-09-13T05:10:51;4.05;;;1.85;;
39776;SDS011;25453;48.162;14.510;2022-09-13T05:13:18;2.72;;;1.40;;
39776;SDS011;25453;48.162;14.510;2022-09-13T05:15:57;2.92;;;1.70;;
39776;SDS011;25453;48.162;14.510;2022-09-13T05:18:30;5.40;;;1.75;;
39776;SDS011;25453;48.162;14.510;2022-09-13T05:21:10;2.65;;;1.60;;
39776;SDS011;25453;48.162;14.510;2022-09-13T05:23:44;3.92;;;1.60;;
39776;SDS011;25453;48.162;14.510;2022-09-13T05:26:14;3.78;;;1.58;;
39776;SDS011;25453;48.162;14.510;2022-09-13T05:28:49;2.22;;;1.50;;
39776;SDS011;25453;48.162;14.510;2022-09-13T05:31:17;3.05;;;1.38;;
39776;SDS011;25453;48.162;14.510;2022-09-13T05:33:58;2.58;;;1.17;;
39776;SDS011;25453;48.162;14.510;2022-09-13T05:36:31;2.60;;;1.33;;
39776;SDS011;25453;48.162;14.510;2022-09-13T05:39:05;2.90;;;1.45;;
39776;SDS011;25453;48.162;14.510;2022-09-13T05:41:53;4.10;;;2.22;;
39776;SDS011;25453;48.162;14.510;2022-09-13T05:44:27;3.38;;;1.80;;
39776;SDS011;25453;48.162;14.510;2022-09-13T05:46:54;4.65;;;2.28;;
39776;SDS011;25453;48.162;14.510;2022-09-13T05:49:28;4.00;;;2.00;;
39776;SDS011;25453;48.162;14.510;2022-09-13T05:51:55;4.22;;;2.13;;
39776;SDS011;25453;48.162;14.510;2022-09-13T05:54:42;3.53;;;1.88;;
39776;SDS011;25453;48.162;14.510;2022-09-13T05:57:09;3.17;;;1.70;;
39776;SDS011;25453;48.162;14.510;2022-09-13T05:59:44;2.47;;;1.67;;
39776;SDS011;25453;48.162;14.510;2022-09-13T06:02:13;2.70;;;1.48;;
39776;SDS011;25453;48.162;14.510;2022-09-13T06:04:47;3.67;;;1.75;;
39776;SDS011;25453;48.162;14.510;2022-09-13T06:07:16;3.50;;;1.60;;
39776;SDS011;25453;48.162;14.510;2022-09-13T06:09:50;2.83;;;1.35;;
39776;SDS011;25453;48.162;14.510;2022-09-13T06:12:18;3.03;;;1.45;;
39776;SDS011;25453;48.162;14.510;2022-09-13T06:14:53;2.92;;;1.60;;
39776;SDS011;25453;48.162;14.510;2022-09-13T06:19:55;3.60;;;1.50;;
39776;SDS011;25453;48.162;14.510;2022-09-13T06:22:23;2.90;;;1.45;;
39776;SDS011;25453;48.162;14.510;2022-09-13T06:27:32;3.03;;;1.60;;
39776;SDS011;25453;48.162;14.510;2022-09-13T06:29:59;3.53;;;2.08;;
39776;SDS011;25453;48.162;14.510;2022-09-13T06:32:26;4.82;;;2.25;;
39776;SDS011;25453;48.162;14.510;2022-09-13T06:35:01;4.60;;;1.73;;
39776;SDS011;25453;48.162;14.510;2022-09-13T06:37:28;3.45;;;1.48;;
39776;SDS011;25453;48.162;14.510;2022-09-13T06:40:02;3.42;;;1.50;;
39776;SDS011;25453;48.162;14.510;2022-09-13T06:45:05;3.15;;;1.58;;
39776;SDS011;25453;48.162;14.510;2022-09-13T06:47:33;2.25;;;1.52;;
39776;SDS011;25453;48.162;14.510;2022-09-13T06:50:08;2.08;;;1.40;;
39776;SDS011;25453;48.162;14.510;2022-09-13T06:52:42;2.63;;;1.52;;
39776;SDS011;25453;48.162;14.510;2022-09-13T06:55:22;5.75;;;2.15;;
39776;SDS011;25453;48.162;14.510;2022-09-13T06:57:57;5.82;;;2.25;;
39776;SDS011;25453;48.162;14.510;2022-09-13T07:00:25;4.45;;;2.20;;
39776;SDS011;25453;48.162;14.510;2022-09-13T07:02:59;5.28;;;2.05;;
39776;SDS011;25453;48.162;14.510;2022-09-13T07:05:26;5.13;;;2.22;;
39776;SDS011;25453;48.162;14.510;2022-09-13T07:08:02;3.90;;;1.42;;
39776;SDS011;25453;48.162;14.510;2022-09-13T07:10:29;4.93;;;1.77;;
39776;SDS011;25453;48.162;14.510;2022-09-13T07:12:56;2.45;;;1.38;;
39776;SDS011;25453;48.162;14.510;2022-09-13T07:15:31;3.67;;;1.60;;
39776;SDS011;25453;48.162;14.510;2022-09-13T07:18:01;3.60;;;1.83;;
39776;SDS011;25453;48.162;14.510;2022-09-13T07:20:35;3.13;;;1.50;;
39776;SDS011;25453;48.162;14.510;2022-09-13T07:23:09;3.17;;;1.85;;
39776;SDS011;25453;48.162;14.510;2022-09-13T07:25:40;2.42;;;1.40;;
39776;SDS011;25453;48.162;14.510;2022-09-13T07:28:08;3.17;;;1.63;;
39776;SDS011;25453;48.162;14.510;2022-09-13T07:30:42;3.20;;;1.60;;
39776;SDS011;25453;48.162;14.510;2022-09-13T07:33:09;2.90;;;1.50;;
39776;SDS011;25453;48.162;14.510;2022-09-13T07:35:38;3.15;;;1.70;;
39776;SDS011;25453;48.162;14.510;2022-09-13T07:38:12;3.38;;;1.70;;
39776;SDS011;25453;48.162;14.510;2022-09-13T07:40:53;2.58;;;1.67;;
39776;SDS011;25453;48.162;14.510;2022-09-13T07:43:25;3.25;;;1.45;;
39776;SDS011;25453;48.162;14.510;2022-09-13T07:46:05;3.40;;;1.83;;
39776;SDS011;25453;48.162;14.510;2022-09-13T07:48:35;3.08;;;1.80;;
39776;SDS011;25453;48.162;14.510;2022-09-13T07:53:56;3.55;;;1.52;;
39776;SDS011;25453;48.162;14.510;2022-09-13T07:56:34;3.47;;;1.80;;
39776;SDS011;25453;48.162;14.510;2022-09-13T07:59:04;3.75;;;1.75;;
39776;SDS011;25453;48.162;14.510;2022-09-13T08:01:43;4.90;;;1.90;;
39776;SDS011;25453;48.162;14.510;2022-09-13T08:04:14;3.22;;;1.67;;
39776;SDS011;25453;48.162;14.510;2022-09-13T08:06:53;3.00;;;1.63;;
39776;SDS011;25453;48.162;14.510;2022-09-13T08:09:28;1.80;;;1.15;;
39776;SDS011;25453;48.162;14.510;2022-09-13T08:11:55;3.08;;;1.75;;
39776;SDS011;25453;48.162;14.510;2022-09-13T08:14:30;2.72;;;1.70;;
39776;SDS011;25453;48.162;14.510;2022-09-13T08:16:57;2.95;;;1.67;;
39776;SDS011;25453;48.162;14.510;2022-09-13T08:19:31;2.50;;;1.45;;
39776;SDS011;25453;48.162;14.510;2022-09-13T08:21:58;3.92;;;2.30;;
39776;SDS011;25453;48.162;14.510;2022-09-13T08:27:01;3.33;;;1.58;;
39776;SDS011;25453;48.162;14.510;2022-09-13T08:29:35;3.22;;;1.40;;
39776;SDS011;25453;48.162;14.510;2022-09-13T08:32:02;4.60;;;1.38;;
39776;SDS011;25453;48.162;14.510;2022-09-13T08:34:37;1.92;;;1.20;;
39776;SDS011;25453;48.162;14.510;2022-09-13T08:37:04;3.45;;;1.60;;
39776;SDS011;25453;48.162;14.510;2022-09-13T08:39:38;2.03;;;1.30;;
39776;SDS011;25453;48.162;14.510;2022-09-13T08:44:59;2.20;;;1.50;;
39776;SDS011;25453;48.162;14.510;2022-09-13T08:50:33;1.95;;;1.65;;
39776;SDS011;25453;48.162;14.510;2022-09-13T08:53:29;1.50;;;1.10;;
39776;SDS011;25453;48.162;14.510;2022-09-13T08:58:40;2.63;;;1.48;;
39776;SDS011;25453;48.162;14.510;2022-09-13T09:04:22;2.60;;;1.42;;
39776;SDS011;25453;48.162;14.510;2022-09-13T09:07:15;2.47;;;1.38;;
39776;SDS011;25453;48.162;14.510;2022-09-13T09:09:59;2.00;;;1.20;;
39776;SDS011;25453;48.162;14.510;2022-09-13T09:15:22;2.83;;;1.50;;
39776;SDS011;25453;48.162;14.510;2022-09-13T09:18:03;2.28;;;1.48;;
39776;SDS011;25453;48.162;14.510;2022-09-13T09:23:21;2.90;;;1.60;;
39776;SDS011;25453;48.162;14.510;2022-09-13T09:25:54;3.05;;;1.73;;
39776;SDS011;25453;48.162;14.510;2022-09-13T09:28:31;2.15;;;1.50;;
39776;SDS011;25453;48.162;14.510;2022-09-13T09:31:09;2.95;;;1.73;;
39776;SDS011;25453;48.162;14.510;2022-09-13T09:34:21;3.85;;;2.15;;
39776;SDS011;25453;48.162;14.510;2022-09-13T09:37:07;3.92;;;1.80;;
39776;SDS011;25453;48.162;14.510;2022-09-13T09:39:59;5.05;;;2.28;;
39776;SDS011;25453;48.162;14.510;2022-09-13T09:42:36;3.97;;;2.28;;
39776;SDS011;25453;48.162;14.510;2022-09-13T09:45:24;2.85;;;1.67;;
39776;SDS011;25453;48.162;14.510;2022-09-13T09:47:55;2.45;;;1.88;;
39776;SDS011;25453;48.162;14.510;2022-09-13T09:50:35;4.38;;;1.77;;
39776;SDS011;25453;48.162;14.510;2022-09-13T09:53:53;2.67;;;1.73;;
39776;SDS011;25453;48.162;14.510;2022-09-13T09:56:30;3.70;;;2.22;;
39776;SDS011;25453;48.162;14.510;2022-09-13T09:58:59;2.53;;;1.70;;
39776;SDS011;25453;48.162;14.510;2022-09-13T10:01:37;2.78;;;1.77;;
39776;SDS011;25453;48.162;14.510;2022-09-13T10:04:07;3.08;;;1.75;;
39776;SDS011;25453;48.162;14.510;2022-09-13T10:06:44;2.65;;;1.90;;
39776;SDS011;25453;48.162;14.510;2022-09-13T10:09:19;3.65;;;2.00;;
39776;SDS011;25453;48.162;14.510;2022-09-13T10:11:52;3.83;;;2.20;;
39776;SDS011;25453;48.162;14.510;2022-09-13T10:19:59;2.33;;;1.52;;
39776;SDS011;25453;48.162;14.510;2022-09-13T10:22:47;2.85;;;1.67;;
39776;SDS011;25453;48.162;14.510;2022-09-13T10:25:44;2.60;;;1.80;;
39776;SDS011;25453;48.162;14.510;2022-09-13T10:28:23;4.93;;;1.63;;
39776;SDS011;25453;48.162;14.510;2022-09-13T10:31:00;2.50;;;1.65;;
39776;SDS011;25453;48.162;14.510;2022-09-13T10:33:32;3.55;;;2.17;;
39776;SDS011;25453;48.162;14.510;2022-09-13T10:36:26;3.25;;;1.60;;
39776;SDS011;25453;48.162;14.510;2022-09-13T10:39:19;2.20;;;1.63;;
39776;SDS011;25453;48.162;14.510;2022-09-13T10:41:59;2.78;;;1.52;;
39776;SDS011;25453;48.162;14.510;2022-09-13T10:44:54;4.20;;;2.08;;
39776;SDS011;25453;48.162;14.510;2022-09-13T10:53:41;3.28;;;1.90;;
39776;SDS011;25453;48.162;14.510;2022-09-13T10:56:20;2.42;;;1.45;;
39776;SDS011;25453;48.162;14.510;2022-09-13T10:58:52;1.77;;;1.40;;
39776;SDS011;25453;48.162;14.510;2022-09-13T11:07:13;3.88;;;1.40;;
39776;SDS011;25453;48.162;14.510;2022-09-13T11:10:02;1.98;;;1.30;;
39776;SDS011;25453;48.162;14.510;2022-09-13T11:12:48;2.23;;;1.30;;
39776;SDS011;25453;48.162;14.510;2022-09-13T11:18:32;1.33;;;1.10;;
39776;SDS011;25453;48.162;14.510;2022-09-13T11:21:08;1.70;;;1.20;;
39776;SDS011;25453;48.162;14.510;2022-09-13T11:24:09;1.90;;;1.10;;
39776;SDS011;25453;48.162;14.510;2022-09-13T11:29:57;2.78;;;1.45;;
39776;SDS011;25453;48.162;14.510;2022-09-13T11:33:00;2.10;;;1.17;;
39776;SDS011;25453;48.162;14.510;2022-09-13T11:41:31;2.22;;;1.10;;
39776;SDS011;25453;48.162;14.510;2022-09-13T11:55:51;1.67;;;0.93;;
39776;SDS011;25453;48.162;14.510;2022-09-13T11:58:35;2.17;;;0.90;;
39776;SDS011;25453;48.162;14.510;2022-09-13T12:01:09;1.23;;;0.88;;
39776;SDS011;25453;48.162;14.510;2022-09-13T12:03:50;1.55;;;1.10;;
39776;SDS011;25453;48.162;14.510;2022-09-13T12:06:29;0.73;;;0.60;;
39776;SDS011;25453;48.162;14.510;2022-09-13T12:09:12;1.20;;;0.80;;
39776;SDS011;25453;48.162;14.510;2022-09-13T12:12:26;1.30;;;0.90;;
39776;SDS011;25453;48.162;14.510;2022-09-13T12:14:51;1.02;;;0.80;;
39776;SDS011;25453;48.162;14.510;2022-09-13T12:17:47;0.95;;;0.60;;
39776;SDS011;25453;48.162;14.510;2022-09-13T12:23:04;1.35;;;0.80;;
39776;SDS011;25453;48.162;14.510;2022-09-13T12:25:41;1.33;;;0.90;;
39776;SDS011;25453;48.162;14.510;2022-09-13T12:31:22;1.13;;;0.80;;
39776;SDS011;25453;48.162;14.510;2022-09-13T12:34:00;0.85;;;0.75;;
39776;SDS011;25453;48.162;14.510;2022-09-13T12:50:50;0.68;;;0.60;;
39776;SDS011;25453;48.162;14.510;2022-09-13T12:57:02;0.90;;;0.60;;
39776;SDS011;25453;48.162;14.510;2022-09-13T12:59:57;1.20;;;0.60;;
39776;SDS011;25453;48.162;14.510;2022-09-13T13:02:59;0.85;;;0.60;;
39776;SDS011;25453;48.162;14.510;2022-09-13T13:05:56;0.65;;;0.60;;
39776;SDS011;25453;48.162;14.510;2022-09-13T13:09:05;0.93;;;0.60;;
39776;SDS011;25453;48.162;14.510;2022-09-13T13:11:57;0.80;;;0.50;;
39776;SDS011;25453;48.162;14.510;2022-09-13T13:23:30;1.02;;;0.70;;
39776;SDS011;25453;48.162;14.510;2022-09-13T13:26:05;0.43;;;0.40;;
39776;SDS011;25453;48.162;14.510;2022-09-13T13:49:51;0.82;;;0.50;;
39776;SDS011;25453;48.162;14.510;2022-09-13T13:52:55;0.55;;;0.35;;
39776;SDS011;25453;48.162;14.510;2022-09-13T13:55:44;0.50;;;0.50;;
39776;SDS011;25453;48.162;14.510;2022-09-13T13:58:24;0.43;;;0.32;;
39776;SDS011;25453;48.162;14.510;2022-09-13T14:00:58;0.70;;;0.60;;
39776;SDS011;25453;48.162;14.510;2022-09-13T14:06:29;0.55;;;0.40;;
39776;SDS011;25453;48.162;14.510;2022-09-13T14:14:52;0.43;;;0.35;;
39776;SDS011;25453;48.162;14.510;2022-09-13T14:20:13;0.55;;;0.40;;
39776;SDS011;25453;48.162;14.510;2022-09-13T14:22:42;1.27;;;0.50;;
39776;SDS011;25453;48.162;14.510;2022-09-13T14:27:49;0.38;;;0.30;;
39776;SDS011;25453;48.162;14.510;2022-09-13T14:30:34;0.57;;;0.32;;
39776;SDS011;25453;48.162;14.510;2022-09-13T14:33:04;1.02;;;0.40;;
39776;SDS011;25453;48.162;14.510;2022-09-13T14:35:39;0.60;;;0.50;;
39776;SDS011;25453;48.162;14.510;2022-09-13T14:41:15;0.95;;;0.50;;
39776;SDS011;25453;48.162;14.510;2022-09-13T14:43:45;0.32;;;0.32;;
39776;SDS011;25453;48.162;14.510;2022-09-13T14:46:22;1.05;;;0.60;;
39776;SDS011;25453;48.162;14.510;2022-09-13T14:49:01;0.85;;;0.52;;
39776;SDS011;25453;48.162;14.510;2022-09-13T14:51:49;0.50;;;0.30;;
39776;SDS011;25453;48.162;14.510;2022-09-13T14:54:51;1.13;;;0.63;;
39776;SDS011;25453;48.162;14.510;2022-09-13T14:57:30;0.45;;;0.40;;
39776;SDS011;25453;48.162;14.510;2022-09-13T15:00:02;0.45;;;0.38;;
39776;SDS011;25453;48.162;14.510;2022-09-13T15:02:49;0.60;;;0.50;;
39776;SDS011;25453;48.162;14.510;2022-09-13T15:05:23;0.40;;;0.40;;
39776;SDS011;25453;48.162;14.510;2022-09-13T15:07:59;0.55;;;0.45;;
39776;SDS011;25453;48.162;14.510;2022-09-13T15:10:50;0.68;;;0.50;;
39776;SDS011;25453;48.162;14.510;2022-09-13T15:13:24;0.63;;;0.30;;
39776;SDS011;25453;48.162;14.510;2022-09-13T15:15:58;0.65;;;0.47;;
39776;SDS011;25453;48.162;14.510;2022-09-13T15:18:29;1.08;;;0.70;;
39776;SDS011;25453;48.162;14.510;2022-09-13T15:21:05;0.70;;;0.57;;
39776;SDS011;25453;48.162;14.510;2022-09-13T15:23:49;0.30;;;0.30;;
39776;SDS011;25453;48.162;14.510;2022-09-13T15:26:24;0.60;;;0.50;;
39776;SDS011;25453;48.162;14.510;2022-09-13T15:28:55;0.70;;;0.40;;
39776;SDS011;25453;48.162;14.510;2022-09-13T15:31:32;0.30;;;0.30;;
39776;SDS011;25453;48.162;14.510;2022-09-13T15:34:11;0.60;;;0.40;;
39776;SDS011;25453;48.162;14.510;2022-09-13T15:36:48;0.50;;;0.30;;
39776;SDS011;25453;48.162;14.510;2022-09-13T15:40:18;0.52;;;0.30;;
39776;SDS011;25453;48.162;14.510;2022-09-13T15:42:50;0.43;;;0.30;;
39776;SDS011;25453;48.162;14.510;2022-09-13T15:45:24;0.40;;;0.40;;
39776;SDS011;25453;48.162;14.510;2022-09-13T15:47:58;0.38;;;0.30;;
39776;SDS011;25453;48.162;14.510;2022-09-13T15:50:32;0.57;;;0.40;;
39776;SDS011;25453;48.162;14.510;2022-09-13T15:53:01;0.38;;;0.20;;
39776;SDS011;25453;48.162;14.510;2022-09-13T15:55:49;0.30;;;0.20;;
39776;SDS011;25453;48.162;14.510;2022-09-13T15:58:23;0.30;;;0.30;;
39776;SDS011;25453;48.162;14.510;2022-09-13T16:00:50;0.63;;;0.47;;
39776;SDS011;25453;48.162;14.510;2022-09-13T16:03:24;0.40;;;0.30;;
39776;SDS011;25453;48.162;14.510;2022-09-13T16:05:52;0.50;;;0.30;;
39776;SDS011;25453;48.162;14.510;2022-09-13T16:08:26;0.20;;;0.20;;
39776;SDS011;25453;48.162;14.510;2022-09-13T16:10:53;0.40;;;0.30;;
39776;SDS011;25453;48.162;14.510;2022-09-13T16:13:27;0.60;;;0.30;;
39776;SDS011;25453;48.162;14.510;2022-09-13T16:15:55;0.30;;;0.30;;
39776;SDS011;25453;48.162;14.510;2022-09-13T16:18:29;0.30;;;0.30;;
39776;SDS011;25453;48.162;14.510;2022-09-13T16:20:57;0.57;;;0.32;;
39776;SDS011;25453;48.162;14.510;2022-09-13T16:23:31;0.30;;;0.30;;
39776;SDS011;25453;48.162;14.510;2022-09-13T16:26:05;0.30;;;0.30;;
39776;SDS011;25453;48.162;14.510;2022-09-13T16:28:39;0.25;;;0.25;;
39776;SDS011;25453;48.162;14.510;2022-09-13T16:31:14;0.40;;;0.32;;
39776;SDS011;25453;48.162;14.510;2022-09-13T16:33:48;0.50;;;0.40;;
39776;SDS011;25453;48.162;14.510;2022-09-13T16:36:16;0.70;;;0.40;;
39776;SDS011;25453;48.162;14.510;2022-09-13T16:38:44;1.00;;;0.52;;
39776;SDS011;25453;48.162;14.510;2022-09-13T16:41:20;1.10;;;0.50;;
39776;SDS011;25453;48.162;14.510;2022-09-13T16:43:54;0.57;;;0.47;;
39776;SDS011;25453;48.162;14.510;2022-09-13T16:46:22;0.82;;;0.57;;
39776;SDS011;25453;48.162;14.510;2022-09-13T16:48:56;1.08;;;0.70;;
39776;SDS011;25453;48.162;14.510;2022-09-13T16:51:34;0.70;;;0.68;;
39776;SDS011;25453;48.162;14.510;2022-09-13T16:56:45;2.58;;;1.10;;
39776;SDS011;25453;48.162;14.510;2022-09-13T16:59:20;2.25;;;1.05;;
39776;SDS011;25453;48.162;14.510;2022-09-13T17:01:54;2.97;;;1.27;;
39776;SDS011;25453;48.162;14.510;2022-09-13T17:04:28;3.25;;;1.42;;
39776;SDS011;25453;48.162;14.510;2022-09-13T17:07:02;1.90;;;1.15;;
39776;SDS011;25453;48.162;14.510;2022-09-13T17:09:38;2.47;;;1.02;;
39776;SDS011;25453;48.162;14.510;2022-09-13T17:12:07;2.60;;;1.33;;
39776;SDS011;25453;48.162;14.510;2022-09-13T17:14:42;2.10;;;1.23;;
39776;SDS011;25453;48.162;14.510;2022-09-13T17:17:19;2.92;;;1.42;;
39776;SDS011;25453;48.162;14.510;2022-09-13T17:19:49;2.80;;;1.25;;
39776;SDS011;25453;48.162;14.510;2022-09-13T17:22:18;2.72;;;1.10;;
39776;SDS011;25453;48.162;14.510;2022-09-13T17:24:52;3.10;;;1.48;;
39776;SDS011;25453;48.162;14.510;2022-09-13T17:27:29;2.38;;;1.48;;
39776;SDS011;25453;48.162;14.510;2022-09-13T17:29:56;2.80;;;1.30;;
39776;SDS011;25453;48.162;14.510;2022-09-13T17:35:00;2.20;;;1.20;;
39776;SDS011;25453;48.162;14.510;2022-09-13T17:37:36;1.17;;;0.93;;
39776;SDS011;25453;48.162;14.510;2022-09-13T17:40:04;2.13;;;0.98;;
39776;SDS011;25453;48.162;14.510;2022-09-13T17:42:41;2.08;;;1.10;;
39776;SDS011;25453;48.162;14.510;2022-09-13T17:45:09;3.28;;;1.20;;
39776;SDS011;25453;48.162;14.510;2022-09-13T17:47:45;2.08;;;0.90;;
39776;SDS011;25453;48.162;14.510;2022-09-13T17:50:19;2.20;;;1.13;;
39776;SDS011;25453;48.162;14.510;2022-09-13T17:52:59;2.00;;;1.05;;
39776;SDS011;25453;48.162;14.510;2022-09-13T17:55:45;2.28;;;1.02;;
39776;SDS011;25453;48.162;14.510;2022-09-13T17:58:25;2.15;;;0.90;;
39776;SDS011;25453;48.162;14.510;2022-09-13T18:01:06;0.98;;;0.68;;
39776;SDS011;25453;48.162;14.510;2022-09-13T18:03:41;1.83;;;0.80;;
39776;SDS011;25453;48.162;14.510;2022-09-13T18:06:10;0.88;;;0.60;;
39776;SDS011;25453;48.162;14.510;2022-09-13T18:08:46;1.13;;;0.88;;
39776;SDS011;25453;48.162;14.510;2022-09-13T18:13:48;1.63;;;0.73;;
39776;SDS011;25453;48.162;14.510;2022-09-13T18:16:24;0.93;;;0.52;;
39776;SDS011;25453;48.162;14.510;2022-09-13T18:18:53;1.17;;;0.80;;
39776;SDS011;25453;48.162;14.510;2022-09-13T18:21:28;1.40;;;0.55;;
39776;SDS011;25453;48.162;14.510;2022-09-13T18:24:02;1.17;;;0.60;;
39776;SDS011;25453;48.162;14.510;2022-09-13T18:26:37;0.80;;;0.50;;
39776;SDS011;25453;48.162;14.510;2022-09-13T18:29:12;0.80;;;0.53;;
39776;SDS011;25453;48.162;14.510;2022-09-13T18:31:46;0.93;;;0.63;;
39776;SDS011;25453;48.162;14.510;2022-09-13T18:34:14;1.65;;;0.85;;
39776;SDS011;25453;48.162;14.510;2022-09-13T18:36:41;1.05;;;0.60;;
39776;SDS011;25453;48.162;14.510;2022-09-13T18:39:16;1.00;;;0.60;;
39776;SDS011;25453;48.162;14.510;2022-09-13T18:41:45;1.02;;;0.55;;
39776;SDS011;25453;48.162;14.510;2022-09-13T18:46:47;0.68;;;0.47;;